createdAt,value
2023-05-17T00:00:55.276Z,2.42
2023-05-17T00:03:21.880Z,3.00
2023-05-17T00:05:48.720Z,2.80
2023-05-17T00:08:15.526Z,3.17
2023-05-17T00:10:43.387Z,2.40
2023-05-17T00:13:09.957Z,2.38
2023-05-17T00:15:36.547Z,2.70
2023-05-17T00:18:03.199Z,2.67
2023-05-17T00:20:29.770Z,3.10
2023-05-17T00:22:56.311Z,2.53
2023-05-17T00:25:22.911Z,2.85
2023-05-17T00:27:49.440Z,3.05
2023-05-17T00:30:16.091Z,2.72
2023-05-17T00:32:42.701Z,2.40
2023-05-17T00:35:09.567Z,2.97
2023-05-17T00:37:36.119Z,3.17
2023-05-17T00:40:03.737Z,3.20
2023-05-17T00:42:30.298Z,3.10
2023-05-17T00:44:57.154Z,3.13
2023-05-17T00:47:23.851Z,2.63
2023-05-17T00:49:50.599Z,3.28
2023-05-17T00:52:17.352Z,2.80
2023-05-17T00:54:44.262Z,3.20
2023-05-17T00:57:11.307Z,3.05
2023-05-17T00:59:38.342Z,2.83
2023-05-17T01:02:05.093Z,2.95
2023-05-17T01:04:32.383Z,2.35
2023-05-17T01:06:59.099Z,3.00
2023-05-17T01:09:28.825Z,2.65
2023-05-17T01:12:43.589Z,2.67
2023-05-17T01:15:26.223Z,3.13
2023-05-17T01:18:11.551Z,2.92
2023-05-17T01:20:44.039Z,2.70
2023-05-17T01:23:56.299Z,3.00
2023-05-17T01:26:40.172Z,2.63
2023-05-17T01:29:10.028Z,2.58
2023-05-17T01:31:37.293Z,2.90
2023-05-17T01:34:10.543Z,3.13
2023-05-17T01:36:37.382Z,3.55
2023-05-17T01:39:03.950Z,3.20
2023-05-17T01:41:46.377Z,2.70
2023-05-17T01:44:30.294Z,2.67
2023-05-17T01:47:06.680Z,3.30
2023-05-17T01:49:38.686Z,3.38
2023-05-17T01:52:13.572Z,2.87
2023-05-17T01:54:50.884Z,3.33
2023-05-17T01:57:20.809Z,3.40
2023-05-17T01:59:49.841Z,3.78
2023-05-17T02:02:16.441Z,3.17
2023-05-17T02:04:42.985Z,3.67
2023-05-17T02:07:09.954Z,3.13
2023-05-17T02:09:36.619Z,3.35
2023-05-17T02:12:03.187Z,2.88
2023-05-17T02:14:30.045Z,3.42
2023-05-17T02:16:56.981Z,4.00
2023-05-17T02:19:23.693Z,3.60
2023-05-17T02:21:50.374Z,3.20
2023-05-17T02:24:16.879Z,3.15
2023-05-17T02:26:43.441Z,3.17
2023-05-17T02:29:13.124Z,3.17
2023-05-17T02:31:39.841Z,3.30
2023-05-17T02:34:06.422Z,3.15
2023-05-17T02:36:33.209Z,2.60
2023-05-17T02:38:59.764Z,2.83
2023-05-17T02:41:26.354Z,3.17
2023-05-17T02:43:52.880Z,2.72
2023-05-17T02:46:19.390Z,2.58
2023-05-17T02:48:46.168Z,3.47
2023-05-17T02:51:12.715Z,3.15
2023-05-17T02:53:39.275Z,3.03
2023-05-17T02:56:06.087Z,2.90
2023-05-17T02:58:32.605Z,3.28
2023-05-17T03:00:59.125Z,3.53
2023-05-17T03:03:25.930Z,3.13
2023-05-17T03:05:52.801Z,3.13
2023-05-17T03:08:19.306Z,3.55
2023-05-17T03:10:45.841Z,3.75
2023-05-17T03:13:12.356Z,3.10
2023-05-17T03:15:38.906Z,3.83
2023-05-17T03:18:05.501Z,3.23
2023-05-17T03:20:32.135Z,3.75
2023-05-17T03:22:58.657Z,3.92
2023-05-17T03:25:25.200Z,4.07
2023-05-17T03:27:51.783Z,3.30
2023-05-17T03:30:18.525Z,4.17
2023-05-17T03:32:45.449Z,3.60
2023-05-17T03:35:12.394Z,3.92
2023-05-17T03:37:38.906Z,3.85
2023-05-17T03:40:06.350Z,3.53
2023-05-17T03:42:32.993Z,3.63
2023-05-17T03:45:00.332Z,3.70
2023-05-17T03:47:26.930Z,4.47
2023-05-17T03:49:53.481Z,3.88
2023-05-17T03:52:20.143Z,4.18
2023-05-17T03:54:48.255Z,3.40
2023-05-17T03:57:15.041Z,3.80
2023-05-17T03:59:41.627Z,4.15
2023-05-17T04:02:08.208Z,3.60
2023-05-17T04:04:34.887Z,3.30
2023-05-17T04:07:01.402Z,3.40
2023-05-17T04:09:28.005Z,4.00
2023-05-17T04:11:54.539Z,3.90
2023-05-17T04:14:22.398Z,3.35
2023-05-17T04:16:48.991Z,4.15
2023-05-17T04:19:15.666Z,3.20
2023-05-17T04:21:42.303Z,4.22
2023-05-17T04:24:08.875Z,3.92
2023-05-17T04:26:35.663Z,4.05
2023-05-17T04:29:02.178Z,4.38
2023-05-17T04:31:28.922Z,3.70
2023-05-17T04:33:55.525Z,3.75
2023-05-17T04:36:22.440Z,3.70
2023-05-17T04:38:48.938Z,3.80
2023-05-17T04:41:16.240Z,3.85
2023-05-17T04:43:42.830Z,3.33
2023-05-17T04:46:09.796Z,3.53
2023-05-17T04:48:36.656Z,3.17
2023-05-17T04:51:07.350Z,3.15
2023-05-17T04:53:34.144Z,4.35
2023-05-17T04:56:00.932Z,3.77
2023-05-17T04:58:27.537Z,3.33
2023-05-17T05:00:54.108Z,3.60
2023-05-17T05:03:22.923Z,3.65
2023-05-17T05:05:49.822Z,3.13
2023-05-17T05:08:17.518Z,3.70
2023-05-17T05:10:44.056Z,3.80
2023-05-17T05:13:11.292Z,3.35
2023-05-17T05:15:37.813Z,3.35
2023-05-17T05:18:04.523Z,3.63
2023-05-17T05:20:31.876Z,3.07
2023-05-17T05:22:58.921Z,3.17
2023-05-17T05:25:25.971Z,3.28
2023-05-17T05:27:52.594Z,3.20
2023-05-17T05:30:22.444Z,3.67
2023-05-17T05:32:50.126Z,3.53
2023-05-17T05:35:17.425Z,3.45
2023-05-17T05:37:44.791Z,4.10
2023-05-17T05:40:11.977Z,3.35
2023-05-17T05:42:38.619Z,2.80
2023-05-17T05:45:05.546Z,3.27
2023-05-17T05:47:32.167Z,2.85
2023-05-17T05:49:58.709Z,3.45
2023-05-17T05:52:25.473Z,3.10
2023-05-17T05:54:52.039Z,3.63
2023-05-17T05:57:18.649Z,2.80
2023-05-17T05:59:45.239Z,2.58
2023-05-17T06:02:12.096Z,2.58
2023-05-17T06:04:45.251Z,2.50
2023-05-17T06:07:12.856Z,2.63
2023-05-17T06:09:39.582Z,3.23
2023-05-17T06:12:06.302Z,2.92
2023-05-17T06:14:32.841Z,3.13
2023-05-17T06:16:59.485Z,2.40
2023-05-17T06:19:26.469Z,2.70
2023-05-17T06:21:53.172Z,3.00
2023-05-17T06:24:19.671Z,2.75
2023-05-17T06:26:47.209Z,2.70
2023-05-17T06:29:13.744Z,2.60
2023-05-17T06:31:40.391Z,2.50
2023-05-17T06:34:07.138Z,2.27
2023-05-17T06:36:36.630Z,2.05
2023-05-17T06:39:04.996Z,2.85
2023-05-17T06:41:31.706Z,2.20
2023-05-17T06:43:58.261Z,2.38
2023-05-17T06:46:25.023Z,2.13
2023-05-17T06:48:51.756Z,2.10
2023-05-17T06:51:18.498Z,2.30
2023-05-17T06:53:45.038Z,2.58
2023-05-17T06:56:11.717Z,2.30
2023-05-17T06:58:38.300Z,2.20
2023-05-17T07:01:06.001Z,2.20
2023-05-17T07:03:32.803Z,2.45
2023-05-17T07:05:59.757Z,2.00
2023-05-17T07:08:26.344Z,2.00
2023-05-17T07:10:53.401Z,2.10
2023-05-17T07:13:20.081Z,2.10
2023-05-17T07:15:46.751Z,1.90
2023-05-17T07:18:15.668Z,1.77
2023-05-17T07:20:42.431Z,2.58
2023-05-17T07:23:08.966Z,2.00
2023-05-17T07:25:39.014Z,1.70
2023-05-17T07:28:05.789Z,1.90
2023-05-17T07:30:32.388Z,2.17
2023-05-17T07:32:58.998Z,2.17
2023-05-17T07:35:25.558Z,2.33
2023-05-17T07:37:52.075Z,2.25
2023-05-17T07:40:18.724Z,2.35
2023-05-17T07:42:45.213Z,1.90
2023-05-17T07:45:11.875Z,1.98
2023-05-17T07:47:38.525Z,1.77
2023-05-17T07:50:05.743Z,1.70
2023-05-17T07:52:32.722Z,1.58
2023-05-17T07:54:59.275Z,2.10
2023-05-17T07:57:27.375Z,1.38
2023-05-17T07:59:54.053Z,1.33
2023-05-17T08:02:20.835Z,1.30
2023-05-17T08:04:47.546Z,1.65
2023-05-17T08:07:14.115Z,1.60
2023-05-17T08:09:43.756Z,1.30
2023-05-17T08:12:10.673Z,1.63
2023-05-17T08:14:37.416Z,2.08
2023-05-17T08:17:04.084Z,1.73
2023-05-17T08:19:30.828Z,1.60
2023-05-17T08:22:00.493Z,1.67
2023-05-17T08:24:27.215Z,1.57
2023-05-17T08:26:53.923Z,1.92
2023-05-17T08:29:20.585Z,1.83
2023-05-17T08:31:47.150Z,1.48
2023-05-17T08:34:13.837Z,1.80
2023-05-17T08:36:40.439Z,1.53
2023-05-17T08:39:08.559Z,1.77
2023-05-17T08:41:38.442Z,1.52
2023-05-17T08:44:06.456Z,1.50
2023-05-17T08:46:35.078Z,1.65
2023-05-17T08:49:04.235Z,1.77
2023-05-17T08:51:32.634Z,1.88
2023-05-17T08:53:59.482Z,1.95
2023-05-17T08:56:26.604Z,1.55
2023-05-17T08:58:57.944Z,1.67
2023-05-17T09:01:27.407Z,1.70
2023-05-17T09:03:55.236Z,2.20
2023-05-17T09:06:23.113Z,1.45
2023-05-17T09:08:54.798Z,2.10
2023-05-17T09:11:33.001Z,1.92
2023-05-17T09:14:01.088Z,1.63
2023-05-17T09:16:31.813Z,1.67
2023-05-17T09:18:59.613Z,1.63
2023-05-17T09:21:29.713Z,1.80
2023-05-17T09:26:25.938Z,2.00
2023-05-17T09:28:53.475Z,1.83
2023-05-17T09:31:20.035Z,2.17
2023-05-17T09:33:49.273Z,1.92
2023-05-17T09:36:23.034Z,1.95
2023-05-17T09:39:12.295Z,1.90
2023-05-17T09:41:51.104Z,1.80
2023-05-17T09:44:17.680Z,1.98
2023-05-17T09:46:48.798Z,1.67
2023-05-17T09:49:17.140Z,1.77
2023-05-17T09:51:46.784Z,2.00
2023-05-17T09:54:14.271Z,2.75
2023-05-17T09:56:41.368Z,2.20
2023-05-17T09:59:13.220Z,1.90
2023-05-17T10:01:47.737Z,1.88
2023-05-17T10:04:20.360Z,1.67
2023-05-17T10:06:51.367Z,2.05
2023-05-17T10:09:21.706Z,1.90
2023-05-17T10:11:49.432Z,1.60
2023-05-17T10:14:23.770Z,2.40
2023-05-17T10:16:51.777Z,1.50
2023-05-17T10:19:21.064Z,1.75
2023-05-17T10:21:52.608Z,2.10
2023-05-17T10:24:21.701Z,1.90
2023-05-17T10:26:50.676Z,1.55
2023-05-17T10:29:20.721Z,2.07
2023-05-17T10:31:50.277Z,1.63
2023-05-17T10:34:18.843Z,1.73
2023-05-17T10:36:46.172Z,2.22
2023-05-17T10:39:13.187Z,2.22
2023-05-17T10:41:44.875Z,1.67
2023-05-17T10:44:14.979Z,1.60
2023-05-17T10:46:51.509Z,1.90
2023-05-17T10:49:22.285Z,2.15
2023-05-17T10:51:51.699Z,1.77
2023-05-17T10:54:18.837Z,1.67
2023-05-17T10:56:53.630Z,2.30
2023-05-17T10:59:28.241Z,1.77
2023-05-17T11:01:59.801Z,1.83
2023-05-17T11:04:38.546Z,1.70
2023-05-17T11:07:17.444Z,1.67
2023-05-17T11:09:46.284Z,1.98
2023-05-17T11:12:14.722Z,2.20
2023-05-17T11:14:48.977Z,1.85
2023-05-17T11:17:18.029Z,1.73
2023-05-17T11:20:12.318Z,1.67
2023-05-17T11:22:50.040Z,1.85
2023-05-17T11:25:17.047Z,2.00
2023-05-17T11:27:50.395Z,1.83
2023-05-17T11:30:19.718Z,1.58
2023-05-17T11:32:51.371Z,1.50
2023-05-17T11:35:19.158Z,1.67
2023-05-17T11:37:45.916Z,1.80
2023-05-17T11:40:16.044Z,1.52
2023-05-17T11:42:42.807Z,1.60
2023-05-17T11:45:09.735Z,1.70
2023-05-17T11:47:39.626Z,1.55
2023-05-17T11:50:07.539Z,1.98
2023-05-17T11:52:34.665Z,1.35
2023-05-17T11:55:01.840Z,1.92
2023-05-17T11:57:30.771Z,1.50
2023-05-17T12:00:05.685Z,1.73
2023-05-17T12:02:33.225Z,1.60
2023-05-17T12:05:00.499Z,1.50
2023-05-17T12:07:27.933Z,2.00
2023-05-17T12:09:54.557Z,1.40
2023-05-17T12:12:24.001Z,1.80
2023-05-17T12:14:50.743Z,1.63
2023-05-17T12:17:27.742Z,1.63
2023-05-17T12:19:55.408Z,2.00
2023-05-17T12:22:22.358Z,1.77
2023-05-17T12:24:48.965Z,1.42
2023-05-17T12:27:26.141Z,1.98
2023-05-17T12:29:53.734Z,1.52
2023-05-17T12:32:20.687Z,1.77
2023-05-17T12:34:49.313Z,1.40
2023-05-17T12:37:16.161Z,1.63
2023-05-17T12:39:43.211Z,2.42
2023-05-17T12:42:10.283Z,1.60
2023-05-17T12:44:37.032Z,2.20
2023-05-17T12:47:03.631Z,1.40
2023-05-17T12:49:30.209Z,2.00
2023-05-17T12:51:56.757Z,1.80
2023-05-17T12:54:27.810Z,1.55
2023-05-17T12:56:55.213Z,1.70
2023-05-17T12:59:25.288Z,1.70
2023-05-17T13:01:55.818Z,1.30
2023-05-17T13:04:33.958Z,1.92
2023-05-17T13:07:03.130Z,1.60
2023-05-17T13:09:32.057Z,2.25
2023-05-17T13:12:00.986Z,1.53
2023-05-17T13:14:45.668Z,1.58
2023-05-17T13:17:36.791Z,2.05
2023-05-17T13:20:05.466Z,1.70
2023-05-17T13:22:33.759Z,2.42
2023-05-17T13:25:00.443Z,1.50
2023-05-17T13:27:28.125Z,1.45
2023-05-17T13:29:54.736Z,1.88
2023-05-17T13:32:21.460Z,1.50
2023-05-17T13:34:47.978Z,1.42
2023-05-17T13:37:14.577Z,1.20
2023-05-17T13:39:42.027Z,1.70
2023-05-17T13:42:09.608Z,1.52
2023-05-17T13:44:36.412Z,1.90
2023-05-17T13:47:03.068Z,1.45
2023-05-17T13:49:29.610Z,1.70
2023-05-17T13:51:56.812Z,1.40
2023-05-17T13:54:23.624Z,1.48
2023-05-17T13:56:50.407Z,1.52
2023-05-17T13:59:16.984Z,1.88
2023-05-17T14:01:43.853Z,1.13
2023-05-17T14:04:10.560Z,1.77
2023-05-17T14:06:37.228Z,1.27
2023-05-17T14:09:04.081Z,2.25
2023-05-17T14:11:30.623Z,1.63
2023-05-17T14:13:57.214Z,1.67
2023-05-17T14:16:23.770Z,1.58
2023-05-17T14:18:50.691Z,1.20
2023-05-17T14:21:17.764Z,1.70
2023-05-17T14:23:44.361Z,1.55
2023-05-17T14:26:11.824Z,1.80
2023-05-17T14:28:39.120Z,1.40
2023-05-17T14:31:09.407Z,1.50
2023-05-17T14:33:36.479Z,1.58
2023-05-17T14:36:04.125Z,1.48
2023-05-17T14:38:31.108Z,1.23
2023-05-17T14:40:59.097Z,2.30
2023-05-17T14:43:25.633Z,1.65
2023-05-17T14:45:52.211Z,1.45
2023-05-17T14:48:18.844Z,1.35
2023-05-17T14:50:45.658Z,1.73
2023-05-17T14:53:12.521Z,1.38
2023-05-17T14:55:39.088Z,1.90
2023-05-17T14:58:05.627Z,1.70
2023-05-17T15:00:32.200Z,1.80
2023-05-17T15:02:59.330Z,1.43
2023-05-17T15:05:26.050Z,1.50
2023-05-17T15:07:52.683Z,1.98
2023-05-17T15:10:19.545Z,1.52
2023-05-17T15:12:46.066Z,1.48
2023-05-17T15:15:13.035Z,1.30
2023-05-17T15:17:39.603Z,1.70
2023-05-17T15:20:07.492Z,1.60
2023-05-17T15:22:34.262Z,1.73
2023-05-17T15:25:01.236Z,1.48
2023-05-17T15:27:27.833Z,1.30
2023-05-17T15:29:54.371Z,1.73
2023-05-17T15:32:21.223Z,1.90
2023-05-17T15:34:47.865Z,1.52
2023-05-17T15:37:14.414Z,2.03
2023-05-17T15:39:41.214Z,1.40
2023-05-17T15:42:07.738Z,1.40
2023-05-17T15:44:34.255Z,1.58
2023-05-17T15:47:03.074Z,2.05
2023-05-17T15:49:30.124Z,2.00
2023-05-17T15:51:56.755Z,1.80
2023-05-17T15:54:23.262Z,1.38
2023-05-17T15:56:49.787Z,1.60
2023-05-17T15:59:16.439Z,1.30
2023-05-17T16:01:46.113Z,1.98
2023-05-17T16:04:13.785Z,1.70
2023-05-17T16:06:41.186Z,1.48
2023-05-17T16:09:07.902Z,1.83
2023-05-17T16:11:34.604Z,1.73
2023-05-17T16:14:01.271Z,1.85
2023-05-17T16:16:27.896Z,1.63
2023-05-17T16:18:54.808Z,1.40
2023-05-17T16:21:21.591Z,1.67
2023-05-17T16:23:48.165Z,1.35
2023-05-17T16:26:15.677Z,1.55
2023-05-17T16:28:42.276Z,1.50
2023-05-17T16:31:08.890Z,1.73
2023-05-17T16:33:36.002Z,1.85
2023-05-17T16:36:04.603Z,1.58
2023-05-17T16:38:31.284Z,2.03
2023-05-17T16:40:58.006Z,2.10
2023-05-17T16:43:24.559Z,1.80
2023-05-17T16:45:53.057Z,1.50
2023-05-17T16:48:19.907Z,1.83
2023-05-17T16:50:47.614Z,1.75
2023-05-17T16:53:14.137Z,1.60
2023-05-17T16:55:41.795Z,1.65
2023-05-17T16:58:08.605Z,1.33
2023-05-17T17:00:35.612Z,1.45
2023-05-17T17:03:02.213Z,1.73
2023-05-17T17:05:28.799Z,1.87
2023-05-17T17:07:55.370Z,1.90
2023-05-17T17:10:22.036Z,2.17
2023-05-17T17:12:49.339Z,1.63
2023-05-17T17:15:15.853Z,2.45
2023-05-17T17:17:42.809Z,2.03
2023-05-17T17:20:09.912Z,1.73
2023-05-17T17:22:36.516Z,2.05
2023-05-17T17:25:03.285Z,1.67
2023-05-17T17:27:29.865Z,2.95
2023-05-17T17:29:56.518Z,1.77
2023-05-17T17:32:23.277Z,1.60
2023-05-17T17:34:49.825Z,1.75
2023-05-17T17:37:16.390Z,1.70
2023-05-17T17:39:42.975Z,1.63
2023-05-17T17:42:10.607Z,1.60
2023-05-17T17:44:37.294Z,1.70
2023-05-17T17:47:04.088Z,1.80
2023-05-17T17:49:30.787Z,1.70
2023-05-17T17:51:58.269Z,1.73
2023-05-17T17:54:24.949Z,1.60
2023-05-17T17:56:52.056Z,1.83
2023-05-17T17:59:18.613Z,1.52
2023-05-17T18:01:45.228Z,1.50
2023-05-17T18:04:13.730Z,2.20
2023-05-17T18:06:42.119Z,1.97
2023-05-17T18:09:08.757Z,2.00
2023-05-17T18:11:35.342Z,2.00
2023-05-17T18:14:02.693Z,1.65
2023-05-17T18:16:29.442Z,1.98
2023-05-17T18:18:56.371Z,1.77
2023-05-17T18:21:23.397Z,1.92
2023-05-17T18:23:49.991Z,2.25
2023-05-17T18:26:16.524Z,2.00
2023-05-17T18:28:43.269Z,1.90
2023-05-17T18:31:10.586Z,1.73
2023-05-17T18:33:37.237Z,2.03
2023-05-17T18:36:03.959Z,2.17
2023-05-17T18:38:30.541Z,1.90
2023-05-17T18:40:57.054Z,1.90
2023-05-17T18:43:23.584Z,2.00
2023-05-17T18:45:51.357Z,1.80
2023-05-17T18:48:18.103Z,1.80
2023-05-17T18:50:44.907Z,2.40
2023-05-17T18:53:13.058Z,1.73
2023-05-17T18:55:39.756Z,1.83
2023-05-17T18:58:06.468Z,1.98
2023-05-17T19:00:33.767Z,1.75
2023-05-17T19:03:00.567Z,1.88
2023-05-17T19:05:27.212Z,1.70
2023-05-17T19:07:53.760Z,1.40
2023-05-17T19:10:21.600Z,1.92
2023-05-17T19:12:48.172Z,1.92
2023-05-17T19:15:14.900Z,1.73
2023-05-17T19:17:41.496Z,2.05
2023-05-17T19:20:08.856Z,1.90
2023-05-17T19:22:35.897Z,1.80
2023-05-17T19:25:02.534Z,1.85
2023-05-17T19:27:29.653Z,2.03
2023-05-17T19:29:56.361Z,1.55
2023-05-17T19:32:22.993Z,1.70
2023-05-17T19:34:49.865Z,1.77
2023-05-17T19:37:16.620Z,1.85
2023-05-17T19:39:43.166Z,2.10
2023-05-17T19:42:09.808Z,2.13
2023-05-17T19:44:36.420Z,1.83
2023-05-17T19:47:02.990Z,2.63
2023-05-17T19:49:29.609Z,2.40
2023-05-17T19:52:00.601Z,2.05
2023-05-17T19:54:30.534Z,1.95
2023-05-17T19:56:58.144Z,2.00
2023-05-17T19:59:24.721Z,1.98
2023-05-17T20:01:51.295Z,2.42
2023-05-17T20:04:17.990Z,1.92
2023-05-17T20:06:44.704Z,1.90
2023-05-17T20:09:11.648Z,1.97
2023-05-17T20:11:38.249Z,1.92
2023-05-17T20:14:04.782Z,2.47
2023-05-17T20:16:31.431Z,2.53
2023-05-17T20:18:58.519Z,1.83
2023-05-17T20:21:26.471Z,2.03
2023-05-17T20:24:00.631Z,2.20
2023-05-17T20:26:31.553Z,1.98
2023-05-17T20:28:59.108Z,2.00
2023-05-17T20:31:26.139Z,2.35
2023-05-17T20:33:53.000Z,2.03
2023-05-17T20:36:19.582Z,1.85
2023-05-17T20:38:46.271Z,2.10
2023-05-17T20:41:14.910Z,2.17
2023-05-17T20:43:45.294Z,2.55
2023-05-17T20:46:13.164Z,2.27
2023-05-17T20:48:42.951Z,2.97
2023-05-17T20:51:10.800Z,2.22
2023-05-17T20:53:38.116Z,2.00
2023-05-17T20:56:06.523Z,2.40
2023-05-17T20:58:33.435Z,2.60
2023-05-17T21:01:01.175Z,2.08
2023-05-17T21:03:29.087Z,2.75
2023-05-17T21:05:55.830Z,2.50
2023-05-17T21:08:23.617Z,2.55
2023-05-17T21:10:50.323Z,2.40
2023-05-17T21:13:17.168Z,2.30
2023-05-17T21:15:43.862Z,2.25
2023-05-17T21:18:11.975Z,2.53
2023-05-17T21:20:39.121Z,2.63
2023-05-17T21:23:05.815Z,2.35
2023-05-17T21:25:32.684Z,2.33
2023-05-17T21:27:59.681Z,2.33
2023-05-17T21:30:26.600Z,2.47
2023-05-17T21:32:53.165Z,2.17
2023-05-17T21:35:19.855Z,2.03
2023-05-17T21:37:46.398Z,2.63
2023-05-17T21:40:12.947Z,2.85
2023-05-17T21:42:39.691Z,2.55
2023-05-17T21:45:06.811Z,2.60
2023-05-17T21:47:35.968Z,2.92
2023-05-17T21:50:05.227Z,3.17
2023-05-17T21:52:31.872Z,2.75
2023-05-17T21:54:58.464Z,2.80
2023-05-17T21:57:24.968Z,3.45
2023-05-17T21:59:51.845Z,3.00
2023-05-17T22:02:18.513Z,2.45
2023-05-17T22:04:45.117Z,2.53
2023-05-17T22:07:13.091Z,2.92
2023-05-17T22:09:40.056Z,2.95
2023-05-17T22:12:08.510Z,2.20
2023-05-17T22:14:36.467Z,2.70
2023-05-17T22:17:08.429Z,2.70
2023-05-17T22:19:40.717Z,2.15
2023-05-17T22:22:08.206Z,2.75
2023-05-17T22:24:35.406Z,2.70
2023-05-17T22:27:03.361Z,3.13
2023-05-17T22:29:29.879Z,2.90
2023-05-17T22:31:56.620Z,2.97
2023-05-17T22:34:23.320Z,2.40
2023-05-17T22:36:49.972Z,2.55
2023-05-17T22:39:16.556Z,3.30
2023-05-17T22:41:43.098Z,2.88
2023-05-17T22:44:09.625Z,2.90
2023-05-17T22:46:38.147Z,2.38
2023-05-17T22:49:04.714Z,3.38
2023-05-17T22:51:34.915Z,2.83
2023-05-17T22:54:02.591Z,2.80
2023-05-17T22:56:29.172Z,3.00
2023-05-17T22:58:55.694Z,2.60
2023-05-17T23:01:22.275Z,3.08
2023-05-17T23:03:48.899Z,3.00
2023-05-17T23:06:15.604Z,3.20
2023-05-17T23:08:42.394Z,2.33
2023-05-17T23:11:09.018Z,3.15
2023-05-17T23:13:36.438Z,2.90
2023-05-17T23:16:02.978Z,2.67
2023-05-17T23:18:29.739Z,2.58
2023-05-17T23:20:56.362Z,2.80
2023-05-17T23:23:23.120Z,2.85
2023-05-17T23:25:50.819Z,2.72
2023-05-17T23:28:18.684Z,2.92
2023-05-17T23:30:48.677Z,3.85
2023-05-17T23:33:15.474Z,2.75
2023-05-17T23:35:42.076Z,3.03
2023-05-17T23:38:08.632Z,3.30
2023-05-17T23:40:35.188Z,3.72
2023-05-17T23:43:01.718Z,3.35
2023-05-17T23:45:28.631Z,3.53
2023-05-17T23:47:55.964Z,3.35
2023-05-17T23:50:22.663Z,2.67
2023-05-17T23:52:49.317Z,3.40
2023-05-17T23:55:15.824Z,3.08
2023-05-17T23:57:42.502Z,3.50
